createdAt,value
2023-02-15T00:01:59.037Z,69.70
2023-02-15T00:04:46.847Z,69.60
2023-02-15T00:07:15.989Z,69.60
2023-02-15T00:09:43.451Z,70.40
2023-02-15T00:12:11.157Z,69.40
2023-02-15T00:14:38.037Z,69.40
2023-02-15T00:17:05.124Z,69.30
2023-02-15T00:19:31.977Z,69.30
2023-02-15T00:21:58.895Z,69.30
2023-02-15T00:24:26.026Z,69.30
2023-02-15T00:26:52.946Z,69.30
2023-02-15T00:29:20.758Z,69.30
2023-02-15T00:31:49.259Z,69.40
2023-02-15T00:34:22.992Z,69.40
2023-02-15T00:36:50.906Z,69.50
2023-02-15T00:39:18.927Z,69.50
2023-02-15T00:41:46.884Z,69.60
2023-02-15T00:44:14.316Z,69.50
2023-02-15T00:46:41.237Z,69.50
2023-02-15T00:49:10.082Z,69.60
2023-02-15T00:51:38.642Z,69.60
2023-02-15T00:54:06.036Z,69.60
2023-02-15T00:56:32.998Z,69.70
2023-02-15T00:58:59.913Z,69.80
2023-02-15T01:01:27.498Z,69.90
2023-02-15T01:03:54.489Z,70.00
2023-02-15T01:06:21.494Z,69.80
2023-02-15T01:08:48.763Z,69.80
2023-02-15T01:11:50.260Z,69.80
2023-02-15T01:14:09.793Z,70.00
2023-02-15T01:16:39.111Z,69.90
2023-02-15T01:19:07.095Z,69.90
2023-02-15T01:21:35.461Z,70.00
2023-02-15T01:24:03.538Z,70.00
2023-02-15T01:26:30.446Z,70.00
2023-02-15T01:28:58.825Z,70.00
2023-02-15T01:31:25.876Z,69.90
2023-02-15T01:33:52.845Z,69.90
2023-02-15T01:36:19.865Z,69.90
2023-02-15T01:38:47.003Z,69.80
2023-02-15T01:41:27.208Z,70.00
2023-02-15T01:44:00.373Z,70.10
2023-02-15T01:46:37.324Z,70.00
2023-02-15T01:49:11.763Z,70.00
2023-02-15T01:51:40.712Z,70.00
2023-02-15T01:54:18.580Z,70.00
2023-02-15T01:56:45.889Z,70.00
2023-02-15T01:59:17.810Z,70.00
2023-02-15T02:01:45.606Z,70.00
2023-02-15T02:04:19.826Z,70.10
2023-02-15T02:06:49.726Z,70.00
2023-02-15T02:09:16.666Z,70.20
2023-02-15T02:11:47.153Z,70.20
2023-02-15T02:14:14.293Z,70.20
2023-02-15T02:16:53.356Z,70.20
2023-02-15T02:19:41.337Z,70.20
2023-02-15T02:22:14.117Z,70.30
2023-02-15T02:25:02.099Z,70.30
2023-02-15T02:27:35.088Z,70.40
2023-02-15T02:30:07.902Z,70.40
2023-02-15T02:33:14.218Z,70.40
2023-02-15T02:35:57.853Z,70.50
2023-02-15T02:38:54.818Z,70.40
2023-02-15T02:41:44.788Z,70.50
2023-02-15T02:44:28.066Z,70.60
2023-02-15T02:47:00.414Z,70.70
2023-02-15T02:49:35.559Z,70.80
2023-02-15T02:52:04.861Z,71.00
2023-02-15T02:54:35.976Z,71.20
2023-02-15T02:57:06.710Z,71.50
2023-02-15T02:59:46.384Z,71.60
2023-02-15T03:02:28.521Z,71.90
2023-02-15T03:05:04.691Z,72.10
2023-02-15T03:07:34.522Z,72.20
2023-02-15T03:10:04.403Z,72.30
2023-02-15T03:12:35.586Z,72.50
2023-02-15T03:15:25.609Z,72.70
2023-02-15T03:17:58.903Z,72.50
2023-02-15T03:20:31.702Z,72.20
2023-02-15T03:23:18.739Z,72.10
2023-02-15T03:25:50.160Z,72.20
2023-02-15T03:28:22.478Z,72.30
2023-02-15T03:30:55.994Z,72.50
2023-02-15T03:33:24.761Z,72.70
2023-02-15T03:36:07.704Z,72.80
2023-02-15T03:39:00.260Z,73.00
2023-02-15T03:41:40.301Z,73.30
2023-02-15T03:44:19.965Z,73.30
2023-02-15T03:47:15.788Z,73.40
2023-02-15T03:49:56.529Z,73.50
2023-02-15T03:52:27.043Z,73.70
2023-02-15T03:54:54.667Z,73.80
2023-02-15T03:57:48.558Z,73.90
2023-02-15T04:00:43.602Z,74.20
2023-02-15T04:03:16.637Z,74.30
2023-02-15T04:05:44.934Z,74.40
2023-02-15T04:08:12.920Z,74.40
2023-02-15T04:10:56.960Z,74.40
2023-02-15T04:13:31.664Z,74.40
2023-02-15T04:16:05.324Z,74.40
2023-02-15T04:18:58.079Z,74.60
2023-02-15T04:21:45.967Z,74.70
2023-02-15T04:24:31.816Z,74.70
2023-02-15T04:26:58.726Z,74.80
2023-02-15T04:29:27.085Z,74.90
2023-02-15T04:31:57.520Z,74.90
2023-02-15T04:34:25.092Z,75.00
2023-02-15T04:36:52.004Z,75.00
2023-02-15T04:39:20.051Z,75.00
2023-02-15T04:41:47.231Z,75.00
2023-02-15T04:44:14.130Z,75.10
2023-02-15T04:46:41.044Z,75.10
2023-02-15T04:49:09.589Z,75.20
2023-02-15T04:51:36.395Z,75.20
2023-02-15T04:54:03.225Z,75.20
2023-02-15T04:56:31.157Z,75.20
2023-02-15T04:58:58.196Z,75.30
2023-02-15T05:01:25.228Z,75.30
2023-02-15T05:03:52.226Z,75.20
2023-02-15T05:06:19.228Z,75.20
2023-02-15T05:08:46.004Z,75.30
2023-02-15T05:11:12.845Z,75.20
2023-02-15T05:13:39.655Z,75.20
2023-02-15T05:16:06.508Z,75.20
2023-02-15T05:18:33.860Z,75.20
2023-02-15T05:21:00.728Z,75.40
2023-02-15T05:23:27.597Z,75.50
2023-02-15T05:26:12.795Z,75.70
2023-02-15T05:28:40.242Z,75.80
2023-02-15T05:31:18.942Z,75.80
2023-02-15T05:33:46.225Z,75.90
2023-02-15T05:36:13.398Z,75.90
2023-02-15T05:38:40.548Z,76.00
2023-02-15T05:41:08.300Z,76.10
2023-02-15T05:43:35.614Z,76.00
2023-02-15T05:46:03.656Z,76.10
2023-02-15T05:48:31.665Z,76.10
2023-02-15T05:51:18.740Z,76.00
2023-02-15T05:53:45.605Z,76.20
2023-02-15T05:56:13.230Z,76.10
2023-02-15T05:58:42.301Z,76.10
2023-02-15T06:01:11.136Z,76.10
2023-02-15T06:03:38.232Z,76.10
2023-02-15T06:06:05.606Z,76.10
2023-02-15T06:08:33.833Z,76.10
2023-02-15T06:11:00.915Z,76.10
2023-02-15T06:13:27.951Z,76.10
2023-02-15T06:15:54.978Z,76.20
2023-02-15T06:18:22.048Z,76.20
2023-02-15T06:20:49.703Z,76.20
2023-02-15T06:23:16.937Z,76.20
2023-02-15T06:25:45.152Z,76.20
2023-02-15T06:28:12.020Z,76.30
2023-02-15T06:30:38.835Z,76.20
2023-02-15T06:33:05.698Z,76.20
2023-02-15T06:35:32.522Z,76.20
2023-02-15T06:37:59.390Z,76.20
2023-02-15T06:40:26.278Z,76.30
2023-02-15T06:42:53.157Z,76.20
2023-02-15T06:45:20.257Z,76.10
2023-02-15T06:47:47.058Z,76.20
2023-02-15T06:50:14.004Z,76.20
2023-02-15T06:52:40.867Z,76.30
2023-02-15T06:55:08.048Z,76.30
2023-02-15T06:57:35.049Z,76.30
2023-02-15T07:00:02.264Z,76.30
2023-02-15T07:02:29.351Z,76.40
2023-02-15T07:04:56.243Z,76.40
2023-02-15T07:07:23.167Z,76.30
2023-02-15T07:09:49.989Z,76.40
2023-02-15T07:12:35.401Z,76.40
2023-02-15T07:15:02.549Z,76.40
2023-02-15T07:17:37.074Z,76.40
2023-02-15T07:20:06.343Z,76.40
2023-02-15T07:22:35.037Z,76.40
2023-02-15T07:25:01.957Z,76.50
2023-02-15T07:27:28.807Z,76.60
2023-02-15T07:29:55.745Z,76.80
2023-02-15T07:32:22.656Z,76.80
2023-02-15T07:34:49.479Z,77.00
2023-02-15T07:37:16.287Z,77.00
2023-02-15T07:39:43.443Z,77.10
2023-02-15T07:42:10.287Z,77.30
2023-02-15T07:44:37.786Z,77.30
2023-02-15T07:47:04.639Z,77.30
2023-02-15T07:49:31.566Z,77.40
2023-02-15T07:51:58.418Z,77.40
2023-02-15T07:54:25.254Z,77.50
2023-02-15T07:56:52.181Z,77.60
2023-02-15T07:59:18.998Z,77.70
2023-02-15T08:01:45.838Z,77.70
2023-02-15T08:04:12.757Z,77.80
2023-02-15T08:06:39.802Z,77.90
2023-02-15T08:09:08.843Z,77.90
2023-02-15T08:11:38.478Z,77.90
2023-02-15T08:14:07.168Z,78.00
2023-02-15T08:16:43.539Z,78.10
2023-02-15T08:19:10.455Z,78.10
2023-02-15T08:21:40.672Z,78.10
2023-02-15T08:24:09.348Z,78.20
2023-02-15T08:26:36.999Z,78.20
2023-02-15T08:29:04.284Z,78.30
2023-02-15T08:31:31.180Z,78.40
2023-02-15T08:33:58.264Z,78.60
2023-02-15T08:36:29.647Z,78.90
2023-02-15T08:38:59.336Z,79.00
2023-02-15T08:41:28.507Z,79.20
2023-02-15T08:43:57.392Z,79.30
2023-02-15T08:46:26.120Z,79.40
2023-02-15T08:48:53.803Z,79.30
2023-02-15T08:51:23.628Z,79.40
2023-02-15T08:53:53.190Z,79.50
2023-02-15T08:56:24.069Z,79.50
2023-02-15T08:58:51.937Z,79.50
2023-02-15T09:01:21.843Z,79.60
2023-02-15T09:03:50.826Z,79.60
2023-02-15T09:06:18.345Z,79.40
2023-02-15T09:08:45.340Z,79.50
2023-02-15T09:11:23.325Z,79.50
2023-02-15T09:14:02.656Z,79.50
2023-02-15T09:16:32.743Z,79.50
2023-02-15T09:19:00.022Z,79.60
2023-02-15T09:21:27.680Z,79.60
2023-02-15T09:24:00.587Z,79.50
2023-02-15T09:26:29.244Z,79.60
2023-02-15T09:28:59.830Z,79.60
2023-02-15T09:31:29.869Z,79.70
2023-02-15T09:33:57.529Z,79.80
2023-02-15T09:36:33.022Z,79.60
2023-02-15T09:39:08.720Z,80.60
2023-02-15T09:41:56.712Z,79.80
2023-02-15T09:44:38.729Z,79.90
2023-02-15T09:47:44.405Z,80.00
2023-02-15T09:50:21.650Z,79.90
2023-02-15T09:52:51.301Z,79.80
2023-02-15T09:55:48.187Z,79.80
2023-02-15T09:58:23.873Z,79.70
2023-02-15T10:01:05.779Z,79.70
2023-02-15T10:03:35.736Z,79.60
2023-02-15T10:06:30.084Z,79.60
2023-02-15T10:09:31.994Z,79.40
2023-02-15T10:12:38.427Z,78.80
2023-02-15T10:15:14.426Z,78.60
2023-02-15T10:17:49.782Z,78.40
2023-02-15T10:20:41.066Z,78.30
2023-02-15T10:23:49.335Z,78.10
2023-02-15T10:26:39.067Z,78.20
2023-02-15T10:29:18.285Z,78.30
2023-02-15T10:31:45.313Z,78.10
2023-02-15T10:34:40.480Z,78.10
2023-02-15T10:37:18.545Z,78.00
2023-02-15T10:40:00.598Z,77.40
2023-02-15T10:42:52.349Z,76.90
2023-02-15T10:45:40.654Z,76.70
2023-02-15T10:48:14.210Z,76.50
2023-02-15T10:51:01.256Z,76.10
2023-02-15T10:53:57.275Z,75.60
2023-02-15T10:56:52.230Z,75.50
2023-02-15T10:59:43.507Z,75.00
2023-02-15T11:02:17.361Z,75.00
2023-02-15T11:05:10.407Z,74.70
2023-02-15T11:07:42.511Z,73.90
2023-02-15T11:10:31.300Z,73.60
2023-02-15T11:13:03.395Z,74.10
2023-02-15T11:15:45.635Z,73.10
2023-02-15T11:18:24.500Z,72.60
2023-02-15T11:20:57.504Z,72.50
2023-02-15T11:23:26.118Z,72.20
2023-02-15T11:26:03.048Z,71.30
2023-02-15T11:28:40.029Z,71.20
2023-02-15T11:31:27.805Z,71.00
2023-02-15T11:34:12.071Z,70.50
2023-02-15T11:36:42.096Z,70.30
2023-02-15T11:39:17.261Z,70.10
2023-02-15T11:41:53.023Z,70.10
2023-02-15T11:44:57.124Z,70.50
2023-02-15T11:47:24.282Z,70.40
2023-02-15T11:49:51.138Z,70.40
2023-02-15T11:52:19.569Z,69.60
2023-02-15T11:54:52.632Z,69.20
2023-02-15T11:57:32.863Z,69.60
2023-02-15T12:00:08.571Z,69.50
2023-02-15T12:02:39.872Z,69.90
2023-02-15T12:05:24.359Z,69.30
2023-02-15T12:08:01.794Z,69.00
2023-02-15T12:10:39.010Z,68.80
2023-02-15T12:13:17.327Z,68.10
2023-02-15T12:15:52.455Z,67.90
2023-02-15T12:18:42.465Z,68.00
2023-02-15T12:21:26.981Z,67.70
2023-02-15T12:23:58.685Z,67.30
2023-02-15T12:26:35.563Z,66.80
2023-02-15T12:29:13.437Z,66.80
2023-02-15T12:31:42.965Z,67.00
2023-02-15T12:34:37.387Z,67.20
2023-02-15T12:37:15.791Z,66.60
2023-02-15T12:39:59.171Z,66.10
2023-02-15T12:42:27.953Z,64.50
2023-02-15T12:44:56.273Z,63.90
2023-02-15T12:47:28.932Z,63.70
2023-02-15T12:50:18.719Z,63.60
2023-02-15T12:52:50.476Z,63.40
2023-02-15T12:55:35.924Z,63.60
2023-02-15T12:58:08.332Z,63.80
2023-02-15T13:00:35.786Z,63.70
2023-02-15T13:03:04.073Z,62.40
2023-02-15T13:05:39.424Z,60.40
2023-02-15T13:08:28.114Z,57.70
2023-02-15T13:10:59.973Z,55.90
2023-02-15T13:13:31.843Z,56.00
2023-02-15T13:16:14.165Z,54.50
2023-02-15T13:18:43.699Z,54.10
2023-02-15T13:21:24.535Z,53.50
2023-02-15T13:24:23.321Z,53.30
2023-02-15T13:26:50.664Z,53.50
2023-02-15T13:29:32.304Z,53.90
2023-02-15T13:32:26.145Z,53.50
2023-02-15T13:34:57.815Z,53.20
2023-02-15T13:38:03.037Z,53.30
2023-02-15T13:40:39.324Z,52.90
2023-02-15T13:43:33.997Z,53.20
2023-02-15T13:46:06.880Z,53.50
2023-02-15T13:48:51.254Z,53.10
2023-02-15T13:51:27.413Z,53.10
2023-02-15T13:54:15.934Z,53.00
2023-02-15T13:57:16.551Z,53.00
2023-02-15T13:59:47.388Z,53.00
2023-02-15T14:02:14.255Z,53.00
2023-02-15T14:04:57.843Z,53.10
2023-02-15T14:07:33.727Z,53.50
2023-02-15T14:10:41.291Z,53.80
2023-02-15T14:13:25.992Z,54.20
2023-02-15T14:16:01.780Z,54.40
2023-02-15T14:18:40.883Z,54.60
2023-02-15T14:21:27.843Z,55.20
2023-02-15T14:24:13.914Z,55.40
2023-02-15T14:26:57.409Z,55.90
2023-02-15T14:29:44.622Z,56.50
2023-02-15T14:32:46.631Z,56.50
2023-02-15T14:35:20.477Z,57.10
2023-02-15T14:38:02.832Z,57.50
2023-02-15T14:41:04.810Z,57.60
2023-02-15T14:43:47.491Z,57.70
2023-02-15T14:46:26.647Z,58.40
2023-02-15T14:49:03.971Z,58.50
2023-02-15T14:51:48.770Z,58.70
2023-02-15T14:54:18.718Z,58.60
2023-02-15T14:56:47.166Z,58.70
2023-02-15T14:59:24.649Z,58.70
2023-02-15T15:02:14.554Z,58.90
2023-02-15T15:04:46.402Z,59.00
2023-02-15T15:07:13.230Z,59.00
2023-02-15T15:09:43.048Z,59.00
2023-02-15T15:12:22.318Z,59.00
2023-02-15T15:14:50.555Z,59.20
2023-02-15T15:17:33.279Z,59.30
2023-02-15T15:20:14.383Z,59.50
2023-02-15T15:22:43.180Z,59.60
2023-02-15T15:25:12.134Z,59.70
2023-02-15T15:27:46.950Z,59.90
2023-02-15T15:30:20.127Z,60.00
2023-02-15T15:32:56.895Z,60.10
2023-02-15T15:35:56.496Z,60.50
2023-02-15T15:38:44.429Z,60.70
2023-02-15T15:41:43.676Z,60.60
2023-02-15T15:44:41.386Z,60.80
2023-02-15T15:47:39.146Z,61.00
2023-02-15T15:50:15.030Z,61.10
2023-02-15T15:52:49.097Z,61.50
2023-02-15T15:55:23.440Z,61.60
2023-02-15T15:57:57.356Z,61.60
2023-02-15T16:00:55.687Z,61.60
2023-02-15T16:03:25.176Z,61.60
2023-02-15T16:05:56.182Z,61.60
2023-02-15T16:08:35.881Z,61.80
2023-02-15T16:11:18.664Z,62.00
2023-02-15T16:13:45.819Z,61.90
2023-02-15T16:16:26.092Z,61.90
2023-02-15T16:18:53.490Z,62.10
2023-02-15T16:21:35.593Z,62.10
2023-02-15T16:24:08.917Z,62.10
2023-02-15T16:27:00.819Z,62.20
2023-02-15T16:29:30.385Z,62.40
2023-02-15T16:31:59.089Z,63.10
2023-02-15T16:34:29.005Z,62.60
2023-02-15T16:37:19.199Z,62.50
2023-02-15T16:39:49.064Z,62.60
2023-02-15T16:42:17.574Z,62.80
2023-02-15T16:44:51.957Z,62.80
2023-02-15T16:47:20.772Z,63.00
2023-02-15T16:49:50.661Z,63.10
2023-02-15T16:52:23.658Z,63.10
2023-02-15T16:54:58.349Z,63.20
2023-02-15T16:57:30.718Z,63.30
2023-02-15T17:00:23.803Z,63.40
2023-02-15T17:03:05.861Z,63.50
2023-02-15T17:05:55.123Z,63.50
2023-02-15T17:08:42.344Z,63.60
2023-02-15T17:11:16.968Z,63.70
2023-02-15T17:14:10.076Z,63.80
2023-02-15T17:16:50.398Z,63.90
2023-02-15T17:19:43.849Z,64.00
2023-02-15T17:22:23.208Z,64.20
2023-02-15T17:24:58.124Z,64.30
2023-02-15T17:27:27.485Z,64.50
2023-02-15T17:30:03.496Z,64.60
2023-02-15T17:32:33.885Z,64.70
2023-02-15T17:35:09.191Z,64.80
2023-02-15T17:37:39.140Z,65.00
2023-02-15T17:40:28.490Z,65.00
2023-02-15T17:42:55.709Z,65.20
2023-02-15T17:45:25.825Z,65.30
2023-02-15T17:47:53.030Z,65.50
2023-02-15T17:50:22.791Z,65.50
2023-02-15T17:52:50.778Z,65.60
2023-02-15T17:55:35.846Z,65.70
2023-02-15T17:58:06.084Z,65.70
2023-02-15T18:00:54.319Z,65.70
2023-02-15T18:03:40.120Z,65.80
2023-02-15T18:06:25.999Z,65.90
2023-02-15T18:09:12.704Z,65.90
2023-02-15T18:11:39.965Z,66.00
2023-02-15T18:14:10.789Z,66.00
2023-02-15T18:16:43.515Z,66.10
2023-02-15T18:19:23.163Z,66.20
2023-02-15T18:21:52.552Z,66.20
2023-02-15T18:24:22.000Z,66.10
2023-02-15T18:26:49.058Z,66.10
2023-02-15T18:29:15.882Z,66.10
2023-02-15T18:31:45.004Z,66.10
2023-02-15T18:34:27.028Z,66.10
2023-02-15T18:36:54.543Z,66.00
2023-02-15T18:39:21.487Z,66.10
2023-02-15T18:41:48.380Z,66.00
2023-02-15T18:44:15.684Z,66.00
2023-02-15T18:46:42.512Z,66.10
2023-02-15T18:49:09.388Z,66.20
2023-02-15T18:51:40.152Z,66.20
2023-02-15T18:54:21.579Z,66.30
2023-02-15T18:56:58.469Z,66.30
2023-02-15T18:59:27.392Z,66.30
2023-02-15T19:01:54.721Z,66.30
2023-02-15T19:04:23.094Z,66.40
2023-02-15T19:06:51.695Z,66.50
2023-02-15T19:09:23.903Z,66.40
2023-02-15T19:11:52.063Z,66.60
2023-02-15T19:14:30.851Z,66.50
2023-02-15T19:16:59.679Z,66.60
2023-02-15T19:19:27.485Z,66.90
2023-02-15T19:21:55.110Z,67.00
2023-02-15T19:24:38.513Z,66.90
2023-02-15T19:27:07.876Z,67.00
2023-02-15T19:29:34.700Z,67.20
2023-02-15T19:32:01.589Z,67.30
2023-02-15T19:34:34.783Z,67.30
2023-02-15T19:37:01.758Z,67.40
2023-02-15T19:39:34.970Z,67.50
2023-02-15T19:42:01.900Z,67.50
2023-02-15T19:44:28.763Z,67.60
2023-02-15T19:46:55.730Z,67.50
2023-02-15T19:49:22.717Z,67.60
2023-02-15T19:51:49.588Z,67.60
2023-02-15T19:54:46.367Z,67.60
2023-02-15T19:57:13.922Z,67.70
2023-02-15T19:59:41.496Z,67.50
2023-02-15T20:02:14.565Z,67.50
2023-02-15T20:04:41.743Z,67.50
2023-02-15T20:07:24.963Z,67.60
2023-02-15T20:09:51.944Z,67.60
2023-02-15T20:12:25.257Z,67.60
2023-02-15T20:14:52.876Z,67.70
2023-02-15T20:17:19.824Z,67.80
2023-02-15T20:19:46.623Z,67.70
2023-02-15T20:22:25.358Z,67.80
2023-02-15T20:24:55.566Z,67.90
2023-02-15T20:27:23.117Z,67.90
2023-02-15T20:29:50.727Z,68.00
2023-02-15T20:32:17.742Z,68.10
2023-02-15T20:34:44.698Z,68.20
2023-02-15T20:37:28.857Z,68.20
2023-02-15T20:39:55.970Z,68.40
2023-02-15T20:42:22.836Z,68.40
2023-02-15T20:44:49.676Z,68.60
2023-02-15T20:47:16.542Z,68.70
2023-02-15T20:49:43.433Z,68.70
2023-02-15T20:52:20.737Z,68.70
2023-02-15T20:54:47.774Z,68.70
2023-02-15T20:57:14.843Z,68.60
2023-02-15T20:59:41.963Z,68.60
2023-02-15T21:02:16.654Z,68.60
2023-02-15T21:04:43.489Z,68.60
2023-02-15T21:07:21.664Z,68.60
2023-02-15T21:09:48.916Z,68.60
2023-02-15T21:12:18.629Z,68.60
2023-02-15T21:14:46.061Z,68.50
2023-02-15T21:17:17.468Z,68.50
2023-02-15T21:19:44.337Z,68.50
2023-02-15T21:22:14.522Z,68.50
2023-02-15T21:24:49.147Z,68.40
2023-02-15T21:27:16.514Z,68.40
2023-02-15T21:29:43.270Z,68.40
2023-02-15T21:32:10.831Z,68.30
2023-02-15T21:34:37.769Z,68.30
2023-02-15T21:37:05.084Z,68.30
2023-02-15T21:39:35.657Z,68.40
2023-02-15T21:42:21.574Z,68.40
2023-02-15T21:45:06.828Z,69.40
2023-02-15T21:47:51.689Z,68.70
2023-02-15T21:50:42.701Z,68.70
2023-02-15T21:53:19.975Z,68.80
2023-02-15T21:55:46.851Z,68.90
2023-02-15T21:58:21.032Z,69.00
2023-02-15T22:00:48.773Z,69.00
2023-02-15T22:03:16.040Z,68.90
2023-02-15T22:05:42.922Z,69.00
2023-02-15T22:08:13.231Z,69.00
2023-02-15T22:10:41.241Z,69.10
2023-02-15T22:13:25.316Z,69.30
2023-02-15T22:15:52.398Z,69.40
2023-02-15T22:18:23.203Z,69.40
2023-02-15T22:20:50.224Z,69.50
2023-02-15T22:23:17.136Z,69.60
2023-02-15T22:25:49.975Z,69.70
2023-02-15T22:28:17.014Z,69.80
2023-02-15T22:30:47.649Z,69.90
2023-02-15T22:33:29.360Z,70.10
2023-02-15T22:35:56.549Z,70.20
2023-02-15T22:38:23.474Z,70.30
2023-02-15T22:40:52.362Z,70.30
2023-02-15T22:43:27.804Z,70.40
2023-02-15T22:45:59.467Z,70.40
2023-02-15T22:48:26.734Z,70.40
2023-02-15T22:50:53.777Z,70.40
2023-02-15T22:53:20.708Z,70.30
2023-02-15T22:55:47.866Z,70.30
2023-02-15T22:58:23.493Z,70.30
2023-02-15T23:00:50.788Z,70.30
2023-02-15T23:03:28.938Z,70.30
2023-02-15T23:05:55.758Z,70.40
2023-02-15T23:08:22.923Z,70.30
2023-02-15T23:10:55.113Z,70.30
2023-02-15T23:13:31.602Z,70.30
2023-02-15T23:16:04.106Z,70.20
2023-02-15T23:18:36.894Z,70.10
2023-02-15T23:21:13.435Z,70.10
2023-02-15T23:23:44.555Z,70.30
2023-02-15T23:26:21.490Z,70.30
2023-02-15T23:28:49.322Z,70.40
2023-02-15T23:31:20.177Z,70.60
2023-02-15T23:33:47.705Z,70.70
2023-02-15T23:36:25.319Z,70.90
2023-02-15T23:38:54.231Z,71.00
2023-02-15T23:41:28.621Z,71.00
2023-02-15T23:43:59.433Z,71.10
2023-02-15T23:46:43.427Z,71.10
2023-02-15T23:49:15.148Z,71.20
2023-02-15T23:51:47.166Z,71.20
2023-02-15T23:54:15.562Z,71.20
2023-02-15T23:56:44.225Z,71.20
2023-02-15T23:59:19.577Z,71.20
